sensor_id;sensor_type;location;lat;lon;timestamp;temperature;humidity
12027;DHT22;6074;52.676;7.284;2022-09-09T00:00:53;14.20;99.90
12027;DHT22;6074;52.676;7.284;2022-09-09T00:03:25;14.20;99.90
12027;DHT22;6074;52.676;7.284;2022-09-09T00:05:58;14.10;99.90
12027;DHT22;6074;52.676;7.284;2022-09-09T00:08:34;14.00;99.90
12027;DHT22;6074;52.676;7.284;2022-09-09T00:11:09;14.10;99.90
12027;DHT22;6074;52.676;7.284;2022-09-09T00:13:43;14.10;99.90
12027;DHT22;6074;52.676;7.284;2022-09-09T00:16:17;14.00;99.90
12027;DHT22;6074;52.676;7.284;2022-09-09T00:18:52;14.00;99.90
12027;DHT22;6074;52.676;7.284;2022-09-09T00:21:25;14.00;99.90
12027;DHT22;6074;52.676;7.284;2022-09-09T00:23:54;14.00;99.90
12027;DHT22;6074;52.676;7.284;2022-09-09T00:26:29;13.90;99.90
12027;DHT22;6074;52.676;7.284;2022-09-09T00:29:03;13.80;99.90
12027;DHT22;6074;52.676;7.284;2022-09-09T00:31:32;13.90;99.90
12027;DHT22;6074;52.676;7.284;2022-09-09T00:34:03;13.80;99.90
12027;DHT22;6074;52.676;7.284;2022-09-09T00:36:32;13.80;99.90
12027;DHT22;6074;52.676;7.284;2022-09-09T00:39:01;13.80;99.90
12027;DHT22;6074;52.676;7.284;2022-09-09T00:41:35;13.80;99.90
12027;DHT22;6074;52.676;7.284;2022-09-09T00:44:23;13.80;99.90
12027;DHT22;6074;52.676;7.284;2022-09-09T00:47:18;13.80;99.90
12027;DHT22;6074;52.676;7.284;2022-09-09T00:49:58;13.80;99.90
12027;DHT22;6074;52.676;7.284;2022-09-09T00:52:34;13.80;99.90
12027;DHT22;6074;52.676;7.284;2022-09-09T00:55:10;13.90;99.90
12027;DHT22;6074;52.676;7.284;2022-09-09T01:00:24;13.90;99.90
12027;DHT22;6074;52.676;7.284;2022-09-09T01:02:59;13.90;99.90
12027;DHT22;6074;52.676;7.284;2022-09-09T01:05:34;13.90;99.90
12027;DHT22;6074;52.676;7.284;2022-09-09T01:08:08;14.00;99.90
12027;DHT22;6074;52.676;7.284;2022-09-09T01:10:43;14.10;99.90
12027;DHT22;6074;52.676;7.284;2022-09-09T01:13:16;14.10;99.90
12027;DHT22;6074;52.676;7.284;2022-09-09T01:15:47;14.10;99.90
12027;DHT22;6074;52.676;7.284;2022-09-09T01:18:17;14.10;99.90
12027;DHT22;6074;52.676;7.284;2022-09-09T01:20:51;14.20;99.90
12027;DHT22;6074;52.676;7.284;2022-09-09T01:23:53;14.40;99.90
12027;DHT22;6074;52.676;7.284;2022-09-09T01:26:28;14.00;99.90
12027;DHT22;6074;52.676;7.284;2022-09-09T01:31:28;14.20;99.90
12027;DHT22;6074;52.676;7.284;2022-09-09T01:36:28;14.20;99.90
12027;DHT22;6074;52.676;7.284;2022-09-09T01:38:56;14.20;99.90
12027;DHT22;6074;52.676;7.284;2022-09-09T01:43:53;13.90;99.90
12027;DHT22;6074;52.676;7.284;2022-09-09T01:46:21;14.60;99.90
12027;DHT22;6074;52.676;7.284;2022-09-09T01:48:50;14.00;99.90
12027;DHT22;6074;52.676;7.284;2022-09-09T01:53:45;14.00;99.90
12027;DHT22;6074;52.676;7.284;2022-09-09T01:56:22;17.80;99.90
12027;DHT22;6074;52.676;7.284;2022-09-09T01:59:07;13.90;99.90
12027;DHT22;6074;52.676;7.284;2022-09-09T02:01:46;13.90;99.90
12027;DHT22;6074;52.676;7.284;2022-09-09T02:04:34;13.80;99.90
12027;DHT22;6074;52.676;7.284;2022-09-09T02:07:02;13.80;99.90
12027;DHT22;6074;52.676;7.284;2022-09-09T02:12:04;13.70;99.90
12027;DHT22;6074;52.676;7.284;2022-09-09T02:14:37;13.60;99.90
12027;DHT22;6074;52.676;7.284;2022-09-09T02:17:09;13.70;99.90
12027;DHT22;6074;52.676;7.284;2022-09-09T02:19:40;13.50;99.90
12027;DHT22;6074;52.676;7.284;2022-09-09T02:24:39;13.40;99.90
12027;DHT22;6074;52.676;7.284;2022-09-09T02:27:08;13.40;99.90
12027;DHT22;6074;52.676;7.284;2022-09-09T02:29:39;13.40;99.90
12027;DHT22;6074;52.676;7.284;2022-09-09T02:32:11;13.60;99.90
12027;DHT22;6074;52.676;7.284;2022-09-09T02:34:42;13.30;99.90
12027;DHT22;6074;52.676;7.284;2022-09-09T02:37:10;13.70;99.90
12027;DHT22;6074;52.676;7.284;2022-09-09T02:42:06;13.20;99.90
12027;DHT22;6074;52.676;7.284;2022-09-09T02:44:33;13.20;99.90
12027;DHT22;6074;52.676;7.284;2022-09-09T02:47:16;13.30;99.90
12027;DHT22;6074;52.676;7.284;2022-09-09T02:49:55;13.30;99.90
12027;DHT22;6074;52.676;7.284;2022-09-09T02:52:32;13.30;99.90
12027;DHT22;6074;52.676;7.284;2022-09-09T02:55:08;13.30;99.90
12027;DHT22;6074;52.676;7.284;2022-09-09T02:57:39;13.30;99.90
12027;DHT22;6074;52.676;7.284;2022-09-09T03:00:07;13.30;99.90
12027;DHT22;6074;52.676;7.284;2022-09-09T03:02:36;13.40;99.90
12027;DHT22;6074;52.676;7.284;2022-09-09T03:05:04;13.30;99.90
12027;DHT22;6074;52.676;7.284;2022-09-09T03:07:32;13.10;99.90
12027;DHT22;6074;52.676;7.284;2022-09-09T03:12:26;13.40;99.90
12027;DHT22;6074;52.676;7.284;2022-09-09T03:19:48;13.60;99.90
12027;DHT22;6074;52.676;7.284;2022-09-09T03:22:17;13.60;99.90
12027;DHT22;6074;52.676;7.284;2022-09-09T03:24:45;13.60;99.90
12027;DHT22;6074;52.676;7.284;2022-09-09T03:34:36;13.70;99.90
12027;DHT22;6074;52.676;7.284;2022-09-09T03:37:05;14.00;99.90
12027;DHT22;6074;52.676;7.284;2022-09-09T03:44:29;13.80;99.90
12027;DHT22;6074;52.676;7.284;2022-09-09T03:46:56;13.80;99.90
12027;DHT22;6074;52.676;7.284;2022-09-09T03:51:54;13.90;99.90
12027;DHT22;6074;52.676;7.284;2022-09-09T03:54:23;13.80;99.90
12027;DHT22;6074;52.676;7.284;2022-09-09T03:59:17;13.80;99.90
12027;DHT22;6074;52.676;7.284;2022-09-09T04:06:39;13.70;99.90
12027;DHT22;6074;52.676;7.284;2022-09-09T04:11:35;13.70;99.90
12027;DHT22;6074;52.676;7.284;2022-09-09T04:16:31;14.30;99.90
12027;DHT22;6074;52.676;7.284;2022-09-09T04:23:53;13.80;99.90
12027;DHT22;6074;52.676;7.284;2022-09-09T04:28:49;13.90;99.90
12027;DHT22;6074;52.676;7.284;2022-09-09T04:31:17;13.80;99.90
12027;DHT22;6074;52.676;7.284;2022-09-09T04:36:13;13.80;99.90
12027;DHT22;6074;52.676;7.284;2022-09-09T04:38:40;13.90;99.90
12027;DHT22;6074;52.676;7.284;2022-09-09T04:43:36;13.80;99.90
12027;DHT22;6074;52.676;7.284;2022-09-09T04:46:05;13.80;99.90
12027;DHT22;6074;52.676;7.284;2022-09-09T04:51:00;13.80;99.90
12027;DHT22;6074;52.676;7.284;2022-09-09T04:56:02;13.70;99.90
12027;DHT22;6074;52.676;7.284;2022-09-09T05:01:07;13.70;99.90
12027;DHT22;6074;52.676;7.284;2022-09-09T05:06:06;13.60;99.90
12027;DHT22;6074;52.676;7.284;2022-09-09T05:15:57;13.40;99.90
12027;DHT22;6074;52.676;7.284;2022-09-09T05:18:25;13.40;99.90
12027;DHT22;6074;52.676;7.284;2022-09-09T05:23:19;13.50;99.90
12027;DHT22;6074;52.676;7.284;2022-09-09T05:25:55;13.40;99.90
12027;DHT22;6074;52.676;7.284;2022-09-09T05:28:23;13.40;99.90
12027;DHT22;6074;52.676;7.284;2022-09-09T05:30:56;13.40;99.90
12027;DHT22;6074;52.676;7.284;2022-09-09T05:33:25;13.40;99.90
12027;DHT22;6074;52.676;7.284;2022-09-09T05:35:56;13.50;99.90
12027;DHT22;6074;52.676;7.284;2022-09-09T05:38:23;13.50;99.90
12027;DHT22;6074;52.676;7.284;2022-09-09T05:40:51;13.40;99.90
12027;DHT22;6074;52.676;7.284;2022-09-09T05:43:18;13.40;99.90
12027;DHT22;6074;52.676;7.284;2022-09-09T05:50:42;13.50;99.90
12027;DHT22;6074;52.676;7.284;2022-09-09T05:53:10;13.50;99.90
12027;DHT22;6074;52.676;7.284;2022-09-09T05:58:04;13.50;99.90
12027;DHT22;6074;52.676;7.284;2022-09-09T06:00:31;13.60;99.90
12027;DHT22;6074;52.676;7.284;2022-09-09T06:05:25;13.60;99.90
12027;DHT22;6074;52.676;7.284;2022-09-09T06:07:55;13.60;99.90
12027;DHT22;6074;52.676;7.284;2022-09-09T06:12:52;13.80;99.90
12027;DHT22;6074;52.676;7.284;2022-09-09T06:22:41;14.00;99.90
12027;DHT22;6074;52.676;7.284;2022-09-09T06:25:10;14.10;99.90
12027;DHT22;6074;52.676;7.284;2022-09-09T06:30:05;14.20;99.90
12027;DHT22;6074;52.676;7.284;2022-09-09T06:35:02;14.30;99.90
12027;DHT22;6074;52.676;7.284;2022-09-09T06:42:25;14.40;99.90
12027;DHT22;6074;52.676;7.284;2022-09-09T06:49:45;14.40;99.90
12027;DHT22;6074;52.676;7.284;2022-09-09T06:57:07;14.50;99.90
12027;DHT22;6074;52.676;7.284;2022-09-09T06:59:35;14.50;99.90
12027;DHT22;6074;52.676;7.284;2022-09-09T07:16:48;14.90;99.90
12027;DHT22;6074;52.676;7.284;2022-09-09T07:26:38;15.30;99.90
12027;DHT22;6074;52.676;7.284;2022-09-09T07:31:34;15.00;99.90
12027;DHT22;6074;52.676;7.284;2022-09-09T07:34:03;15.00;99.90
12027;DHT22;6074;52.676;7.284;2022-09-09T07:36:31;15.10;99.90
12027;DHT22;6074;52.676;7.284;2022-09-09T07:39:00;15.10;99.90
12027;DHT22;6074;52.676;7.284;2022-09-09T07:41:29;15.20;99.90
12027;DHT22;6074;52.676;7.284;2022-09-09T07:46:26;15.30;99.90
12027;DHT22;6074;52.676;7.284;2022-09-09T07:48:54;15.30;99.90
12027;DHT22;6074;52.676;7.284;2022-09-09T07:51:25;15.30;99.90
12027;DHT22;6074;52.676;7.284;2022-09-09T07:53:54;15.40;99.90
12027;DHT22;6074;52.676;7.284;2022-09-09T07:58:51;15.50;99.90
12027;DHT22;6074;52.676;7.284;2022-09-09T08:01:20;15.50;99.90
12027;DHT22;6074;52.676;7.284;2022-09-09T08:03:52;15.50;99.90
12027;DHT22;6074;52.676;7.284;2022-09-09T08:06:20;15.50;99.90
12027;DHT22;6074;52.676;7.284;2022-09-09T08:08:50;15.50;99.90
12027;DHT22;6074;52.676;7.284;2022-09-09T08:16:15;15.50;99.90
12027;DHT22;6074;52.676;7.284;2022-09-09T08:21:13;15.70;99.90
12027;DHT22;6074;52.676;7.284;2022-09-09T08:23:40;15.80;99.90
12027;DHT22;6074;52.676;7.284;2022-09-09T08:26:11;16.00;99.90
12027;DHT22;6074;52.676;7.284;2022-09-09T08:31:08;15.90;99.90
12027;DHT22;6074;52.676;7.284;2022-09-09T08:36:04;16.10;99.90
12027;DHT22;6074;52.676;7.284;2022-09-09T08:41:11;15.90;99.90
12027;DHT22;6074;52.676;7.284;2022-09-09T08:43:41;16.10;99.90
12027;DHT22;6074;52.676;7.284;2022-09-09T08:46:12;16.30;99.90
12027;DHT22;6074;52.676;7.284;2022-09-09T08:48:50;16.30;99.90
12027;DHT22;6074;52.676;7.284;2022-09-09T08:51:19;16.30;99.90
12027;DHT22;6074;52.676;7.284;2022-09-09T08:53:48;16.20;99.90
12027;DHT22;6074;52.676;7.284;2022-09-09T08:56:19;16.40;99.90
12027;DHT22;6074;52.676;7.284;2022-09-09T08:58:49;16.90;99.90
12027;DHT22;6074;52.676;7.284;2022-09-09T09:01:30;16.60;99.90
12027;DHT22;6074;52.676;7.284;2022-09-09T09:04:06;16.60;99.90
12027;DHT22;6074;52.676;7.284;2022-09-09T09:06:49;16.50;99.90
12027;DHT22;6074;52.676;7.284;2022-09-09T09:09:21;16.50;99.90
12027;DHT22;6074;52.676;7.284;2022-09-09T09:11:53;16.50;99.90
12027;DHT22;6074;52.676;7.284;2022-09-09T09:14:22;16.40;99.90
12027;DHT22;6074;52.676;7.284;2022-09-09T09:16:52;16.30;99.90
12027;DHT22;6074;52.676;7.284;2022-09-09T09:19:20;16.50;99.90
12027;DHT22;6074;52.676;7.284;2022-09-09T09:21:51;16.60;99.90
12027;DHT22;6074;52.676;7.284;2022-09-09T09:24:25;16.70;99.90
12027;DHT22;6074;52.676;7.284;2022-09-09T09:26:54;16.70;99.90
12027;DHT22;6074;52.676;7.284;2022-09-09T09:29:23;16.70;99.90
12027;DHT22;6074;52.676;7.284;2022-09-09T09:31:53;13.00;99.90
12027;DHT22;6074;52.676;7.284;2022-09-09T09:36:54;16.90;99.90
12027;DHT22;6074;52.676;7.284;2022-09-09T09:39:25;17.10;99.90
12027;DHT22;6074;52.676;7.284;2022-09-09T09:41:54;17.40;99.90
12027;DHT22;6074;52.676;7.284;2022-09-09T09:44:24;17.50;99.90
12027;DHT22;6074;52.676;7.284;2022-09-09T09:54:20;17.50;99.90
12027;DHT22;6074;52.676;7.284;2022-09-09T09:56:49;17.60;99.90
12027;DHT22;6074;52.676;7.284;2022-09-09T09:59:32;17.80;99.90
12027;DHT22;6074;52.676;7.284;2022-09-09T10:02:13;17.60;99.90
12027;DHT22;6074;52.676;7.284;2022-09-09T10:07:11;17.70;99.90
12027;DHT22;6074;52.676;7.284;2022-09-09T10:12:12;17.70;99.90
12027;DHT22;6074;52.676;7.284;2022-09-09T10:14:49;17.80;99.90
12027;DHT22;6074;52.676;7.284;2022-09-09T10:17:25;17.90;99.90
12027;DHT22;6074;52.676;7.284;2022-09-09T10:20:16;18.00;99.90
12027;DHT22;6074;52.676;7.284;2022-09-09T10:22:49;17.90;99.90
12027;DHT22;6074;52.676;7.284;2022-09-09T10:25:27;18.00;99.90
12027;DHT22;6074;52.676;7.284;2022-09-09T10:28:20;17.90;99.90
12027;DHT22;6074;52.676;7.284;2022-09-09T10:31:01;17.90;99.90
12027;DHT22;6074;52.676;7.284;2022-09-09T10:33:39;17.80;99.90
12027;DHT22;6074;52.676;7.284;2022-09-09T10:36:13;18.40;99.90
12027;DHT22;6074;52.676;7.284;2022-09-09T10:38:42;18.70;99.90
12027;DHT22;6074;52.676;7.284;2022-09-09T10:41:33;18.80;99.90
12027;DHT22;6074;52.676;7.284;2022-09-09T10:44:15;19.10;99.90
12027;DHT22;6074;52.676;7.284;2022-09-09T10:46:55;19.20;99.90
12027;DHT22;6074;52.676;7.284;2022-09-09T10:49:50;19.40;99.90
12027;DHT22;6074;52.676;7.284;2022-09-09T10:52:28;19.80;99.90
12027;DHT22;6074;52.676;7.284;2022-09-09T10:55:01;19.60;99.90
12027;DHT22;6074;52.676;7.284;2022-09-09T10:57:36;19.70;99.90
12027;DHT22;6074;52.676;7.284;2022-09-09T11:00:06;19.80;99.90
12027;DHT22;6074;52.676;7.284;2022-09-09T11:02:38;19.60;99.90
12027;DHT22;6074;52.676;7.284;2022-09-09T11:05:12;19.90;99.90
12027;DHT22;6074;52.676;7.284;2022-09-09T11:07:44;20.20;99.90
12027;DHT22;6074;52.676;7.284;2022-09-09T11:10:20;19.70;99.90
12027;DHT22;6074;52.676;7.284;2022-09-09T11:15:20;20.00;99.90
12027;DHT22;6074;52.676;7.284;2022-09-09T11:17:53;19.60;99.90
12027;DHT22;6074;52.676;7.284;2022-09-09T11:22:53;19.40;99.90
12027;DHT22;6074;52.676;7.284;2022-09-09T11:25:25;19.30;99.90
12027;DHT22;6074;52.676;7.284;2022-09-09T11:28:05;22.30;99.90
12027;DHT22;6074;52.676;7.284;2022-09-09T11:30:46;19.00;99.90
12027;DHT22;6074;52.676;7.284;2022-09-09T11:33:30;18.90;99.90
12027;DHT22;6074;52.676;7.284;2022-09-09T11:36:18;18.80;99.90
12027;DHT22;6074;52.676;7.284;2022-09-09T11:38:51;18.90;99.90
12027;DHT22;6074;52.676;7.284;2022-09-09T11:41:20;18.80;99.90
12027;DHT22;6074;52.676;7.284;2022-09-09T11:43:48;18.80;99.90
12027;DHT22;6074;52.676;7.284;2022-09-09T11:46:18;18.60;99.90
12027;DHT22;6074;52.676;7.284;2022-09-09T11:48:58;18.50;99.90
12027;DHT22;6074;52.676;7.284;2022-09-09T11:51:27;18.40;99.90
12027;DHT22;6074;52.676;7.284;2022-09-09T11:53:56;18.50;99.90
12027;DHT22;6074;52.676;7.284;2022-09-09T11:56:29;18.50;99.90
12027;DHT22;6074;52.676;7.284;2022-09-09T11:59:02;18.60;99.90
12027;DHT22;6074;52.676;7.284;2022-09-09T12:01:34;18.80;99.90
12027;DHT22;6074;52.676;7.284;2022-09-09T12:06:59;19.00;99.90
12027;DHT22;6074;52.676;7.284;2022-09-09T12:09:32;19.30;99.90
12027;DHT22;6074;52.676;7.284;2022-09-09T12:12:18;18.70;99.90
12027;DHT22;6074;52.676;7.284;2022-09-09T12:15:16;18.90;99.90
12027;DHT22;6074;52.676;7.284;2022-09-09T12:17:47;19.30;99.90
12027;DHT22;6074;52.676;7.284;2022-09-09T12:20:18;19.40;99.90
12027;DHT22;6074;52.676;7.284;2022-09-09T12:22:57;19.30;99.90
12027;DHT22;6074;52.676;7.284;2022-09-09T12:25:33;19.30;99.90
12027;DHT22;6074;52.676;7.284;2022-09-09T12:28:08;19.70;99.90
12027;DHT22;6074;52.676;7.284;2022-09-09T12:30:43;20.00;99.90
12027;DHT22;6074;52.676;7.284;2022-09-09T12:33:17;20.00;99.90
12027;DHT22;6074;52.676;7.284;2022-09-09T12:35:51;19.90;99.90
12027;DHT22;6074;52.676;7.284;2022-09-09T12:38:25;20.10;99.90
12027;DHT22;6074;52.676;7.284;2022-09-09T12:40:54;20.10;99.90
12027;DHT22;6074;52.676;7.284;2022-09-09T12:43:24;19.70;99.90
12027;DHT22;6074;52.676;7.284;2022-09-09T12:45:53;19.90;99.90
12027;DHT22;6074;52.676;7.284;2022-09-09T12:48:26;19.80;99.90
12027;DHT22;6074;52.676;7.284;2022-09-09T12:50:55;19.40;99.90
12027;DHT22;6074;52.676;7.284;2022-09-09T12:53:25;19.50;99.90
12027;DHT22;6074;52.676;7.284;2022-09-09T12:55:55;19.40;99.90
12027;DHT22;6074;52.676;7.284;2022-09-09T13:03:19;19.20;99.90
12027;DHT22;6074;52.676;7.284;2022-09-09T13:05:47;19.10;99.90
12027;DHT22;6074;52.676;7.284;2022-09-09T13:08:17;19.10;99.90
12027;DHT22;6074;52.676;7.284;2022-09-09T13:10:47;19.10;99.90
12027;DHT22;6074;52.676;7.284;2022-09-09T13:13:20;19.10;99.90
12027;DHT22;6074;52.676;7.284;2022-09-09T13:15:50;19.10;99.90
12027;DHT22;6074;52.676;7.284;2022-09-09T13:18:20;18.80;99.90
12027;DHT22;6074;52.676;7.284;2022-09-09T13:20:48;18.90;99.90
12027;DHT22;6074;52.676;7.284;2022-09-09T13:23:18;18.80;99.90
12027;DHT22;6074;52.676;7.284;2022-09-09T13:25:54;18.90;99.90
12027;DHT22;6074;52.676;7.284;2022-09-09T13:28:23;19.00;99.90
12027;DHT22;6074;52.676;7.284;2022-09-09T13:30:58;19.10;99.90
12027;DHT22;6074;52.676;7.284;2022-09-09T13:33:32;19.10;99.90
12027;DHT22;6074;52.676;7.284;2022-09-09T13:36:02;19.10;99.90
12027;DHT22;6074;52.676;7.284;2022-09-09T13:38:35;19.10;99.90
12027;DHT22;6074;52.676;7.284;2022-09-09T13:41:04;19.10;99.90
12027;DHT22;6074;52.676;7.284;2022-09-09T13:43:35;19.20;99.90
12027;DHT22;6074;52.676;7.284;2022-09-09T13:46:04;19.20;99.90
12027;DHT22;6074;52.676;7.284;2022-09-09T13:51:02;19.20;99.90
12027;DHT22;6074;52.676;7.284;2022-09-09T13:53:31;19.00;99.90
12027;DHT22;6074;52.676;7.284;2022-09-09T13:55:58;19.20;99.90
12027;DHT22;6074;52.676;7.284;2022-09-09T14:08:27;19.10;99.90
12027;DHT22;6074;52.676;7.284;2022-09-09T14:11:03;19.20;99.90
12027;DHT22;6074;52.676;7.284;2022-09-09T14:25:47;19.30;99.90
12027;DHT22;6074;52.676;7.284;2022-09-09T14:28:15;18.90;99.90
12027;DHT22;6074;52.676;7.284;2022-09-09T14:30:43;18.80;99.90
12027;DHT22;6074;52.676;7.284;2022-09-09T14:33:14;18.60;99.90
12027;DHT22;6074;52.676;7.284;2022-09-09T14:35:42;18.10;99.90
12027;DHT22;6074;52.676;7.284;2022-09-09T14:40:37;17.90;99.90
12027;DHT22;6074;52.676;7.284;2022-09-09T14:43:05;17.80;99.90
12027;DHT22;6074;52.676;7.284;2022-09-09T14:45:35;17.70;99.90
12027;DHT22;6074;52.676;7.284;2022-09-09T14:48:03;17.80;99.90
12027;DHT22;6074;52.676;7.284;2022-09-09T14:50:30;17.50;99.90
12027;DHT22;6074;52.676;7.284;2022-09-09T15:02:52;17.60;99.90
12027;DHT22;6074;52.676;7.284;2022-09-09T15:05:18;17.50;99.90
12027;DHT22;6074;52.676;7.284;2022-09-09T15:10:14;17.20;99.90
12027;DHT22;6074;52.676;7.284;2022-09-09T15:15:08;17.80;99.90
12027;DHT22;6074;52.676;7.284;2022-09-09T15:20:05;17.90;99.90
12027;DHT22;6074;52.676;7.284;2022-09-09T15:34:51;17.90;99.90
12027;DHT22;6074;52.676;7.284;2022-09-09T15:37:20;18.00;99.90
12027;DHT22;6074;52.676;7.284;2022-09-09T15:42:14;17.90;99.90
12027;DHT22;6074;52.676;7.284;2022-09-09T15:47:10;17.90;99.90
12027;DHT22;6074;52.676;7.284;2022-09-09T15:54:35;18.20;99.90
12027;DHT22;6074;52.676;7.284;2022-09-09T15:57:05;17.80;99.90
12027;DHT22;6074;52.676;7.284;2022-09-09T15:59:32;17.80;99.90
12027;DHT22;6074;52.676;7.284;2022-09-09T16:04:28;17.80;99.90
12027;DHT22;6074;52.676;7.284;2022-09-09T16:06:56;17.70;99.90
12027;DHT22;6074;52.676;7.284;2022-09-09T16:09:24;17.70;99.90
12027;DHT22;6074;52.676;7.284;2022-09-09T16:11:55;17.60;99.90
12027;DHT22;6074;52.676;7.284;2022-09-09T16:21:47;17.60;99.90
12027;DHT22;6074;52.676;7.284;2022-09-09T16:24:16;17.60;99.90
12027;DHT22;6074;52.676;7.284;2022-09-09T16:26:44;17.60;99.90
12027;DHT22;6074;52.676;7.284;2022-09-09T16:29:13;21.40;99.90
12027;DHT22;6074;52.676;7.284;2022-09-09T16:34:08;17.50;99.90
12027;DHT22;6074;52.676;7.284;2022-09-09T16:36:36;17.40;99.90
12027;DHT22;6074;52.676;7.284;2022-09-09T16:39:05;17.30;99.90
12027;DHT22;6074;52.676;7.284;2022-09-09T16:41:33;17.40;99.90
12027;DHT22;6074;52.676;7.284;2022-09-09T16:44:02;17.30;99.90
12027;DHT22;6074;52.676;7.284;2022-09-09T16:46:32;17.30;99.90
12027;DHT22;6074;52.676;7.284;2022-09-09T16:49:00;17.30;99.90
12027;DHT22;6074;52.676;7.284;2022-09-09T16:51:29;17.50;99.90
12027;DHT22;6074;52.676;7.284;2022-09-09T16:53:59;17.30;99.90
12027;DHT22;6074;52.676;7.284;2022-09-09T16:56:28;17.40;99.90
12027;DHT22;6074;52.676;7.284;2022-09-09T16:58:58;17.30;99.90
12027;DHT22;6074;52.676;7.284;2022-09-09T17:01:27;17.10;99.90
12027;DHT22;6074;52.676;7.284;2022-09-09T17:03:57;17.20;99.90
12027;DHT22;6074;52.676;7.284;2022-09-09T17:06:24;17.00;99.90
12027;DHT22;6074;52.676;7.284;2022-09-09T17:08:54;17.10;99.90
12027;DHT22;6074;52.676;7.284;2022-09-09T17:13:49;16.80;99.90
12027;DHT22;6074;52.676;7.284;2022-09-09T17:16:18;17.30;99.90
12027;DHT22;6074;52.676;7.284;2022-09-09T17:18:47;17.10;99.90
12027;DHT22;6074;52.676;7.284;2022-09-09T17:21:17;17.20;99.90
12027;DHT22;6074;52.676;7.284;2022-09-09T17:23:45;17.30;99.90
12027;DHT22;6074;52.676;7.284;2022-09-09T17:26:14;17.20;99.90
12027;DHT22;6074;52.676;7.284;2022-09-09T17:28:42;17.20;99.90
12027;DHT22;6074;52.676;7.284;2022-09-09T17:31:10;17.30;99.90
12027;DHT22;6074;52.676;7.284;2022-09-09T17:33:38;17.10;99.90
12027;DHT22;6074;52.676;7.284;2022-09-09T17:36:08;17.10;99.90
12027;DHT22;6074;52.676;7.284;2022-09-09T17:38:37;17.20;99.90
12027;DHT22;6074;52.676;7.284;2022-09-09T17:41:05;17.20;99.90
12027;DHT22;6074;52.676;7.284;2022-09-09T17:46:07;17.30;99.90
12027;DHT22;6074;52.676;7.284;2022-09-09T17:51:04;17.00;99.90
12027;DHT22;6074;52.676;7.284;2022-09-09T17:56:03;17.20;99.90
12027;DHT22;6074;52.676;7.284;2022-09-09T18:01:02;16.50;99.90
12027;DHT22;6074;52.676;7.284;2022-09-09T18:03:30;17.20;99.90
12027;DHT22;6074;52.676;7.284;2022-09-09T18:06:00;17.10;99.90
12027;DHT22;6074;52.676;7.284;2022-09-09T18:08:27;17.20;99.90
12027;DHT22;6074;52.676;7.284;2022-09-09T18:13:23;17.00;99.90
12027;DHT22;6074;52.676;7.284;2022-09-09T18:25:38;16.90;99.90
12027;DHT22;6074;52.676;7.284;2022-09-09T18:28:06;17.10;99.90
12027;DHT22;6074;52.676;7.284;2022-09-09T18:30:38;16.00;99.90
12027;DHT22;6074;52.676;7.284;2022-09-09T18:35:35;16.90;99.90
12027;DHT22;6074;52.676;7.284;2022-09-09T18:38:02;16.80;99.90
12027;DHT22;6074;52.676;7.284;2022-09-09T18:40:29;16.90;99.90
12027;DHT22;6074;52.676;7.284;2022-09-09T18:47:52;16.80;99.90
12027;DHT22;6074;52.676;7.284;2022-09-09T18:52:46;17.10;99.90
12027;DHT22;6074;52.676;7.284;2022-09-09T18:57:41;16.90;99.90
12027;DHT22;6074;52.676;7.284;2022-09-09T19:00:08;16.80;99.90
12027;DHT22;6074;52.676;7.284;2022-09-09T19:05:06;16.70;99.90
12027;DHT22;6074;52.676;7.284;2022-09-09T19:10:00;16.80;99.90
12027;DHT22;6074;52.676;7.284;2022-09-09T19:17:22;16.60;99.90
12027;DHT22;6074;52.676;7.284;2022-09-09T19:19:50;16.40;99.90
12027;DHT22;6074;52.676;7.284;2022-09-09T19:22:19;16.40;99.90
12027;DHT22;6074;52.676;7.284;2022-09-09T19:29:40;16.50;99.90
12027;DHT22;6074;52.676;7.284;2022-09-09T19:32:09;16.30;99.90
12027;DHT22;6074;52.676;7.284;2022-09-09T19:34:36;16.20;99.90
12027;DHT22;6074;52.676;7.284;2022-09-09T19:39:32;16.30;99.90
12027;DHT22;6074;52.676;7.284;2022-09-09T19:44:26;15.80;99.90
12027;DHT22;6074;52.676;7.284;2022-09-09T19:56:43;16.20;99.90
12027;DHT22;6074;52.676;7.284;2022-09-09T19:59:11;16.20;99.90
12027;DHT22;6074;52.676;7.284;2022-09-09T20:01:40;16.20;99.90
12027;DHT22;6074;52.676;7.284;2022-09-09T20:06:37;16.10;99.90
12027;DHT22;6074;52.676;7.284;2022-09-09T20:09:05;15.80;99.90
12027;DHT22;6074;52.676;7.284;2022-09-09T20:11:33;16.00;99.90
12027;DHT22;6074;52.676;7.284;2022-09-09T20:14:01;16.40;99.90
12027;DHT22;6074;52.676;7.284;2022-09-09T20:16:29;16.20;99.90
12027;DHT22;6074;52.676;7.284;2022-09-09T20:18:59;16.00;99.90
12027;DHT22;6074;52.676;7.284;2022-09-09T20:21:28;15.90;99.90
12027;DHT22;6074;52.676;7.284;2022-09-09T20:26:24;15.90;99.90
12027;DHT22;6074;52.676;7.284;2022-09-09T20:28:52;15.90;99.90
12027;DHT22;6074;52.676;7.284;2022-09-09T20:31:21;15.90;99.90
12027;DHT22;6074;52.676;7.284;2022-09-09T20:36:18;15.90;99.90
12027;DHT22;6074;52.676;7.284;2022-09-09T20:38:47;15.90;99.90
12027;DHT22;6074;52.676;7.284;2022-09-09T20:41:15;16.00;99.90
12027;DHT22;6074;52.676;7.284;2022-09-09T20:48:44;15.80;99.90
12027;DHT22;6074;52.676;7.284;2022-09-09T20:58:35;15.80;99.90
12027;DHT22;6074;52.676;7.284;2022-09-09T21:03:31;15.70;99.90
12027;DHT22;6074;52.676;7.284;2022-09-09T21:06:03;15.70;99.90
12027;DHT22;6074;52.676;7.284;2022-09-09T21:20:49;15.60;99.90
12027;DHT22;6074;52.676;7.284;2022-09-09T21:23:18;15.50;99.90
12027;DHT22;6074;52.676;7.284;2022-09-09T21:28:13;19.20;99.90
12027;DHT22;6074;52.676;7.284;2022-09-09T21:33:09;15.50;99.90
12027;DHT22;6074;52.676;7.284;2022-09-09T21:35:37;15.40;99.90
12027;DHT22;6074;52.676;7.284;2022-09-09T21:38:05;15.40;99.90
12027;DHT22;6074;52.676;7.284;2022-09-09T21:40:35;15.30;99.90
12027;DHT22;6074;52.676;7.284;2022-09-09T21:45:33;15.30;99.90
12027;DHT22;6074;52.676;7.284;2022-09-09T21:57:50;15.20;99.90
12027;DHT22;6074;52.676;7.284;2022-09-09T22:07:39;14.90;99.90
12027;DHT22;6074;52.676;7.284;2022-09-09T22:10:07;15.10;99.90
12027;DHT22;6074;52.676;7.284;2022-09-09T22:15:03;15.10;99.90
12027;DHT22;6074;52.676;7.284;2022-09-09T22:17:32;15.10;99.90
12027;DHT22;6074;52.676;7.284;2022-09-09T22:29:48;15.10;99.90
12027;DHT22;6074;52.676;7.284;2022-09-09T22:32:16;15.10;99.90
12027;DHT22;6074;52.676;7.284;2022-09-09T22:37:11;15.00;99.90
12027;DHT22;6074;52.676;7.284;2022-09-09T22:47:00;15.00;99.90
12027;DHT22;6074;52.676;7.284;2022-09-09T22:49:28;15.00;99.90
12027;DHT22;6074;52.676;7.284;2022-09-09T23:06:40;14.80;99.90
12027;DHT22;6074;52.676;7.284;2022-09-09T23:09:10;15.00;99.90
12027;DHT22;6074;52.676;7.284;2022-09-09T23:11:38;15.00;99.90
12027;DHT22;6074;52.676;7.284;2022-09-09T23:14:06;14.80;99.90
12027;DHT22;6074;52.676;7.284;2022-09-09T23:16:36;15.00;99.90
12027;DHT22;6074;52.676;7.284;2022-09-09T23:19:04;15.00;99.90
12027;DHT22;6074;52.676;7.284;2022-09-09T23:24:01;15.00;99.90
12027;DHT22;6074;52.676;7.284;2022-09-09T23:28:57;15.10;99.90
12027;DHT22;6074;52.676;7.284;2022-09-09T23:31:25;15.00;99.90